sensor_id;sensor_type;location;lat;lon;timestamp;pressure;altitude;pressure_sealevel;temperature
68743;BMP180;55725;42.758;26.702;2022-09-09T00:03:26;99553.00;;;14.10
68743;BMP180;55725;42.758;26.702;2022-09-09T00:07:01;99547.00;;;14.20
68743;BMP180;55725;42.758;26.702;2022-09-09T00:10:32;99540.00;;;14.20
68743;BMP180;55725;42.758;26.702;2022-09-09T00:12:29;99540.00;;;13.90
68743;BMP180;55725;42.758;26.702;2022-09-09T00:14:13;99545.00;;;14.10
68743;BMP180;55725;42.758;26.702;2022-09-09T00:15:58;99536.00;;;14.30
68743;BMP180;55725;42.758;26.702;2022-09-09T00:18:27;99528.00;;;14.00
68743;BMP180;55725;42.758;26.702;2022-09-09T00:21:25;99531.00;;;14.20
68743;BMP180;55725;42.758;26.702;2022-09-09T00:23:50;99532.00;;;14.10
68743;BMP180;55725;42.758;26.702;2022-09-09T00:25:12;99529.00;;;14.10
68743;BMP180;55725;42.758;26.702;2022-09-09T00:27:01;99540.00;;;14.00
68743;BMP180;55725;42.758;26.702;2022-09-09T00:30:30;99539.00;;;14.00
68743;BMP180;55725;42.758;26.702;2022-09-09T00:32:13;99543.00;;;14.40
68743;BMP180;55725;42.758;26.702;2022-09-09T00:33:54;99537.00;;;14.30
68743;BMP180;55725;42.758;26.702;2022-09-09T00:35:38;99541.00;;;13.70
68743;BMP180;55725;42.758;26.702;2022-09-09T00:37:20;99546.00;;;14.00
68743;BMP180;55725;42.758;26.702;2022-09-09T00:39:01;99543.00;;;14.30
68743;BMP180;55725;42.758;26.702;2022-09-09T00:42:42;99537.00;;;13.70
68743;BMP180;55725;42.758;26.702;2022-09-09T00:44:27;99533.00;;;14.00
68743;BMP180;55725;42.758;26.702;2022-09-09T00:46:16;99542.00;;;14.00
68743;BMP180;55725;42.758;26.702;2022-09-09T00:48:06;99534.00;;;13.90
68743;BMP180;55725;42.758;26.702;2022-09-09T00:57:29;99533.00;;;14.10
68743;BMP180;55725;42.758;26.702;2022-09-09T01:00:51;99531.00;;;13.80
68743;BMP180;55725;42.758;26.702;2022-09-09T01:02:39;99537.00;;;13.70
68743;BMP180;55725;42.758;26.702;2022-09-09T01:04:27;99527.00;;;13.70
68743;BMP180;55725;42.758;26.702;2022-09-09T01:07:57;99526.00;;;13.60
68743;BMP180;55725;42.758;26.702;2022-09-09T01:09:42;99522.00;;;13.70
68743;BMP180;55725;42.758;26.702;2022-09-09T01:13:11;99523.00;;;13.70
68743;BMP180;55725;42.758;26.702;2022-09-09T01:14:56;99520.00;;;13.90
68743;BMP180;55725;42.758;26.702;2022-09-09T01:16:40;99527.00;;;13.70
68743;BMP180;55725;42.758;26.702;2022-09-09T01:18:23;99517.00;;;13.60
68743;BMP180;55725;42.758;26.702;2022-09-09T01:20:10;99529.00;;;13.60
68743;BMP180;55725;42.758;26.702;2022-09-09T01:27:44;99527.00;;;13.80
68743;BMP180;55725;42.758;26.702;2022-09-09T01:29:26;99516.00;;;13.50
68743;BMP180;55725;42.758;26.702;2022-09-09T01:31:07;99511.00;;;13.80
68743;BMP180;55725;42.758;26.702;2022-09-09T01:32:50;99507.00;;;13.90
68743;BMP180;55725;42.758;26.702;2022-09-09T01:34:31;99511.00;;;13.60
68743;BMP180;55725;42.758;26.702;2022-09-09T01:36:21;99517.00;;;13.40
68743;BMP180;55725;42.758;26.702;2022-09-09T01:38:04;99519.00;;;13.70
68743;BMP180;55725;42.758;26.702;2022-09-09T01:39:45;99524.00;;;13.80
68743;BMP180;55725;42.758;26.702;2022-09-09T01:41:26;99531.00;;;13.70
68743;BMP180;55725;42.758;26.702;2022-09-09T01:43:06;99524.00;;;13.30
68743;BMP180;55725;42.758;26.702;2022-09-09T01:44:47;99523.00;;;13.80
68743;BMP180;55725;42.758;26.702;2022-09-09T01:46:29;99530.00;;;13.70
68743;BMP180;55725;42.758;26.702;2022-09-09T01:48:09;99522.00;;;13.80
68743;BMP180;55725;42.758;26.702;2022-09-09T01:49:49;99523.00;;;13.70
68743;BMP180;55725;42.758;26.702;2022-09-09T01:51:29;99522.00;;;13.50
68743;BMP180;55725;42.758;26.702;2022-09-09T01:53:10;99529.00;;;13.70
68743;BMP180;55725;42.758;26.702;2022-09-09T01:54:51;99522.00;;;13.60
68743;BMP180;55725;42.758;26.702;2022-09-09T02:00:10;99519.00;;;13.80
68743;BMP180;55725;42.758;26.702;2022-09-09T02:03:32;99519.00;;;13.70
68743;BMP180;55725;42.758;26.702;2022-09-09T02:07:01;99525.00;;;13.90
68743;BMP180;55725;42.758;26.702;2022-09-09T02:08:42;99528.00;;;13.50
68743;BMP180;55725;42.758;26.702;2022-09-09T02:10:24;99533.00;;;13.40
68743;BMP180;55725;42.758;26.702;2022-09-09T02:12:08;99523.00;;;13.60
68743;BMP180;55725;42.758;26.702;2022-09-09T02:13:57;99527.00;;;13.70
68743;BMP180;55725;42.758;26.702;2022-09-09T02:17:27;99518.00;;;13.40
68743;BMP180;55725;42.758;26.702;2022-09-09T02:20:56;99524.00;;;13.10
68743;BMP180;55725;42.758;26.702;2022-09-09T02:22:37;99531.00;;;13.40
68743;BMP180;55725;42.758;26.702;2022-09-09T02:24:19;99518.00;;;13.20
68743;BMP180;55725;42.758;26.702;2022-09-09T02:26:00;99516.00;;;13.40
68743;BMP180;55725;42.758;26.702;2022-09-09T02:27:41;99498.00;;;13.50
68743;BMP180;55725;42.758;26.702;2022-09-09T02:29:25;99511.00;;;13.30
68743;BMP180;55725;42.758;26.702;2022-09-09T02:31:06;99511.00;;;13.70
68743;BMP180;55725;42.758;26.702;2022-09-09T02:32:47;99511.00;;;13.80
68743;BMP180;55725;42.758;26.702;2022-09-09T02:34:28;99506.00;;;13.50
68743;BMP180;55725;42.758;26.702;2022-09-09T02:36:10;99508.00;;;13.80
68743;BMP180;55725;42.758;26.702;2022-09-09T02:37:53;99512.00;;;13.20
68743;BMP180;55725;42.758;26.702;2022-09-09T02:39:33;99510.00;;;13.10
68743;BMP180;55725;42.758;26.702;2022-09-09T02:41:14;99509.00;;;13.00
68743;BMP180;55725;42.758;26.702;2022-09-09T02:42:54;99514.00;;;12.90
68743;BMP180;55725;42.758;26.702;2022-09-09T02:44:35;99510.00;;;13.00
68743;BMP180;55725;42.758;26.702;2022-09-09T02:48:20;99512.00;;;13.00
68743;BMP180;55725;42.758;26.702;2022-09-09T02:50:13;99514.00;;;12.80
68743;BMP180;55725;42.758;26.702;2022-09-09T02:57:21;99509.00;;;12.80
68743;BMP180;55725;42.758;26.702;2022-09-09T02:59:03;99518.00;;;12.80
68743;BMP180;55725;42.758;26.702;2022-09-09T03:00:47;99521.00;;;13.20
68743;BMP180;55725;42.758;26.702;2022-09-09T03:02:27;99514.00;;;13.20
68743;BMP180;55725;42.758;26.702;2022-09-09T03:04:08;99513.00;;;13.30
68743;BMP180;55725;42.758;26.702;2022-09-09T03:05:49;99508.00;;;13.10
68743;BMP180;55725;42.758;26.702;2022-09-09T03:07:29;99518.00;;;12.70
68743;BMP180;55725;42.758;26.702;2022-09-09T03:09:09;99522.00;;;12.70
68743;BMP180;55725;42.758;26.702;2022-09-09T03:10:50;99508.00;;;13.10
68743;BMP180;55725;42.758;26.702;2022-09-09T03:12:32;99507.00;;;13.50
68743;BMP180;55725;42.758;26.702;2022-09-09T03:14:13;99510.00;;;13.70
68743;BMP180;55725;42.758;26.702;2022-09-09T03:15:53;99500.00;;;13.50
68743;BMP180;55725;42.758;26.702;2022-09-09T03:17:34;99512.00;;;13.80
68743;BMP180;55725;42.758;26.702;2022-09-09T03:19:15;99515.00;;;13.90
68743;BMP180;55725;42.758;26.702;2022-09-09T03:20:56;99516.00;;;13.90
68743;BMP180;55725;42.758;26.702;2022-09-09T03:22:38;99510.00;;;13.50
68743;BMP180;55725;42.758;26.702;2022-09-09T03:24:18;99513.00;;;13.10
68743;BMP180;55725;42.758;26.702;2022-09-09T03:25:58;99514.00;;;12.60
68743;BMP180;55725;42.758;26.702;2022-09-09T03:27:39;99515.00;;;12.50
68743;BMP180;55725;42.758;26.702;2022-09-09T03:29:20;99527.00;;;12.80
68743;BMP180;55725;42.758;26.702;2022-09-09T03:31:00;99514.00;;;12.70
68743;BMP180;55725;42.758;26.702;2022-09-09T03:32:41;99519.00;;;12.90
68743;BMP180;55725;42.758;26.702;2022-09-09T03:34:21;99510.00;;;12.50
68743;BMP180;55725;42.758;26.702;2022-09-09T03:36:02;99516.00;;;12.50
68743;BMP180;55725;42.758;26.702;2022-09-09T03:37:42;99524.00;;;12.40
68743;BMP180;55725;42.758;26.702;2022-09-09T03:39:23;99523.00;;;12.80
68743;BMP180;55725;42.758;26.702;2022-09-09T03:41:03;99516.00;;;12.60
68743;BMP180;55725;42.758;26.702;2022-09-09T03:42:46;99526.00;;;12.40
68743;BMP180;55725;42.758;26.702;2022-09-09T03:44:26;99526.00;;;12.70
68743;BMP180;55725;42.758;26.702;2022-09-09T03:46:07;99524.00;;;12.40
68743;BMP180;55725;42.758;26.702;2022-09-09T03:47:47;99522.00;;;12.70
68743;BMP180;55725;42.758;26.702;2022-09-09T03:49:27;99519.00;;;12.80
68743;BMP180;55725;42.758;26.702;2022-09-09T03:51:11;99523.00;;;12.30
68743;BMP180;55725;42.758;26.702;2022-09-09T03:52:51;99520.00;;;12.70
68743;BMP180;55725;42.758;26.702;2022-09-09T03:54:31;99517.00;;;12.40
68743;BMP180;55725;42.758;26.702;2022-09-09T03:56:12;99516.00;;;12.40
68743;BMP180;55725;42.758;26.702;2022-09-09T03:57:52;99517.00;;;12.50
68743;BMP180;55725;42.758;26.702;2022-09-09T03:59:32;99518.00;;;12.40
68743;BMP180;55725;42.758;26.702;2022-09-09T04:01:13;99516.00;;;12.80
68743;BMP180;55725;42.758;26.702;2022-09-09T04:02:53;99511.00;;;12.60
68743;BMP180;55725;42.758;26.702;2022-09-09T04:04:36;99508.00;;;12.60
68743;BMP180;55725;42.758;26.702;2022-09-09T04:06:17;99515.00;;;12.70
68743;BMP180;55725;42.758;26.702;2022-09-09T04:07:57;99515.00;;;12.70
68743;BMP180;55725;42.758;26.702;2022-09-09T04:09:38;99512.00;;;12.60
68743;BMP180;55725;42.758;26.702;2022-09-09T04:11:18;99513.00;;;13.10
68743;BMP180;55725;42.758;26.702;2022-09-09T04:12:59;99524.00;;;13.10
68743;BMP180;55725;42.758;26.702;2022-09-09T04:14:40;99515.00;;;13.20
68743;BMP180;55725;42.758;26.702;2022-09-09T04:16:20;99516.00;;;12.70
68743;BMP180;55725;42.758;26.702;2022-09-09T04:18:01;99521.00;;;13.40
68743;BMP180;55725;42.758;26.702;2022-09-09T04:19:41;99514.00;;;13.70
68743;BMP180;55725;42.758;26.702;2022-09-09T04:21:22;99512.00;;;13.10
68743;BMP180;55725;42.758;26.702;2022-09-09T04:23:03;99515.00;;;13.30
68743;BMP180;55725;42.758;26.702;2022-09-09T04:24:44;99515.00;;;13.70
68743;BMP180;55725;42.758;26.702;2022-09-09T04:26:24;99518.00;;;13.70
68743;BMP180;55725;42.758;26.702;2022-09-09T04:28:05;99517.00;;;13.50
68743;BMP180;55725;42.758;26.702;2022-09-09T04:29:45;99514.00;;;13.40
68743;BMP180;55725;42.758;26.702;2022-09-09T04:31:25;99508.00;;;13.50
68743;BMP180;55725;42.758;26.702;2022-09-09T04:33:06;99512.00;;;13.30
68743;BMP180;55725;42.758;26.702;2022-09-09T04:34:46;99498.00;;;13.50
68743;BMP180;55725;42.758;26.702;2022-09-09T04:36:27;99493.00;;;13.60
68743;BMP180;55725;42.758;26.702;2022-09-09T04:38:08;99507.00;;;13.60
68743;BMP180;55725;42.758;26.702;2022-09-09T04:39:49;99507.00;;;13.20
68743;BMP180;55725;42.758;26.702;2022-09-09T04:41:29;99507.00;;;13.60
68743;BMP180;55725;42.758;26.702;2022-09-09T04:43:11;99511.00;;;14.00
68743;BMP180;55725;42.758;26.702;2022-09-09T04:44:51;99509.00;;;14.20
68743;BMP180;55725;42.758;26.702;2022-09-09T04:46:32;99508.00;;;13.80
68743;BMP180;55725;42.758;26.702;2022-09-09T04:48:14;99509.00;;;14.20
68743;BMP180;55725;42.758;26.702;2022-09-09T04:49:54;99506.00;;;14.30
68743;BMP180;55725;42.758;26.702;2022-09-09T04:51:35;99511.00;;;14.70
68743;BMP180;55725;42.758;26.702;2022-09-09T04:53:15;99517.00;;;14.50
68743;BMP180;55725;42.758;26.702;2022-09-09T04:54:56;99502.00;;;14.60
68743;BMP180;55725;42.758;26.702;2022-09-09T04:56:37;99504.00;;;14.90
68743;BMP180;55725;42.758;26.702;2022-09-09T04:58:17;99504.00;;;14.80
68743;BMP180;55725;42.758;26.702;2022-09-09T04:59:58;99509.00;;;15.20
68743;BMP180;55725;42.758;26.702;2022-09-09T05:01:39;99500.00;;;14.80
68743;BMP180;55725;42.758;26.702;2022-09-09T05:03:20;99493.00;;;14.90
68743;BMP180;55725;42.758;26.702;2022-09-09T05:05:01;99502.00;;;15.00
68743;BMP180;55725;42.758;26.702;2022-09-09T05:06:41;99489.00;;;15.00
68743;BMP180;55725;42.758;26.702;2022-09-09T05:08:22;99490.00;;;15.20
68743;BMP180;55725;42.758;26.702;2022-09-09T05:10:02;99490.00;;;15.20
68743;BMP180;55725;42.758;26.702;2022-09-09T05:11:44;99491.00;;;15.50
68743;BMP180;55725;42.758;26.702;2022-09-09T05:13:25;99491.00;;;14.80
68743;BMP180;55725;42.758;26.702;2022-09-09T05:15:06;99499.00;;;15.20
68743;BMP180;55725;42.758;26.702;2022-09-09T05:16:47;99498.00;;;15.30
68743;BMP180;55725;42.758;26.702;2022-09-09T05:18:27;99498.00;;;15.70
68743;BMP180;55725;42.758;26.702;2022-09-09T05:20:08;99497.00;;;15.80
68743;BMP180;55725;42.758;26.702;2022-09-09T05:21:49;99492.00;;;16.10
68743;BMP180;55725;42.758;26.702;2022-09-09T05:23:30;99491.00;;;16.40
68743;BMP180;55725;42.758;26.702;2022-09-09T05:25:11;99495.00;;;16.00
68743;BMP180;55725;42.758;26.702;2022-09-09T05:26:51;99495.00;;;16.30
68743;BMP180;55725;42.758;26.702;2022-09-09T05:28:33;99498.00;;;16.50
68743;BMP180;55725;42.758;26.702;2022-09-09T05:30:14;99496.00;;;16.10
68743;BMP180;55725;42.758;26.702;2022-09-09T05:31:54;99496.00;;;16.50
68743;BMP180;55725;42.758;26.702;2022-09-09T05:33:35;99498.00;;;16.40
68743;BMP180;55725;42.758;26.702;2022-09-09T05:35:15;99499.00;;;16.60
68743;BMP180;55725;42.758;26.702;2022-09-09T05:36:56;99490.00;;;16.60
68743;BMP180;55725;42.758;26.702;2022-09-09T05:38:36;99502.00;;;16.30
68743;BMP180;55725;42.758;26.702;2022-09-09T05:40:17;99486.00;;;16.30
68743;BMP180;55725;42.758;26.702;2022-09-09T05:41:58;99488.00;;;16.30
68743;BMP180;55725;42.758;26.702;2022-09-09T05:43:38;99483.00;;;16.40
68743;BMP180;55725;42.758;26.702;2022-09-09T05:45:19;99477.00;;;16.90
68743;BMP180;55725;42.758;26.702;2022-09-09T05:46:59;99474.00;;;16.70
68743;BMP180;55725;42.758;26.702;2022-09-09T05:48:40;99479.00;;;17.10
68743;BMP180;55725;42.758;26.702;2022-09-09T05:50:21;99478.00;;;16.70
68743;BMP180;55725;42.758;26.702;2022-09-09T05:52:02;99486.00;;;17.50
68743;BMP180;55725;42.758;26.702;2022-09-09T05:53:44;99483.00;;;17.90
68743;BMP180;55725;42.758;26.702;2022-09-09T05:55:24;99487.00;;;17.60
68743;BMP180;55725;42.758;26.702;2022-09-09T05:57:05;99482.00;;;17.50
68743;BMP180;55725;42.758;26.702;2022-09-09T05:58:46;99480.00;;;17.60
68743;BMP180;55725;42.758;26.702;2022-09-09T06:00:29;99490.00;;;17.80
68743;BMP180;55725;42.758;26.702;2022-09-09T06:02:11;99485.00;;;18.30
68743;BMP180;55725;42.758;26.702;2022-09-09T06:03:53;99486.00;;;17.90
68743;BMP180;55725;42.758;26.702;2022-09-09T06:05:33;99477.00;;;18.20
68743;BMP180;55725;42.758;26.702;2022-09-09T06:07:15;99487.00;;;18.40
68743;BMP180;55725;42.758;26.702;2022-09-09T06:08:56;99490.00;;;18.40
68743;BMP180;55725;42.758;26.702;2022-09-09T06:10:38;99477.00;;;18.60
68743;BMP180;55725;42.758;26.702;2022-09-09T06:12:18;99480.00;;;18.70
68743;BMP180;55725;42.758;26.702;2022-09-09T06:13:58;99479.00;;;18.40
68743;BMP180;55725;42.758;26.702;2022-09-09T06:15:39;99478.00;;;18.40
68743;BMP180;55725;42.758;26.702;2022-09-09T06:17:20;99474.00;;;18.90
68743;BMP180;55725;42.758;26.702;2022-09-09T06:19:01;99482.00;;;18.90
68743;BMP180;55725;42.758;26.702;2022-09-09T06:20:43;99484.00;;;19.30
68743;BMP180;55725;42.758;26.702;2022-09-09T06:22:23;99491.00;;;19.30
68743;BMP180;55725;42.758;26.702;2022-09-09T06:24:04;99486.00;;;19.50
68743;BMP180;55725;42.758;26.702;2022-09-09T06:25:44;99483.00;;;19.50
68743;BMP180;55725;42.758;26.702;2022-09-09T06:27:26;99487.00;;;19.80
68743;BMP180;55725;42.758;26.702;2022-09-09T06:29:07;99484.00;;;19.90
68743;BMP180;55725;42.758;26.702;2022-09-09T06:30:47;99480.00;;;19.90
68743;BMP180;55725;42.758;26.702;2022-09-09T06:32:27;99476.00;;;19.90
68743;BMP180;55725;42.758;26.702;2022-09-09T06:34:08;99478.00;;;20.00
68743;BMP180;55725;42.758;26.702;2022-09-09T06:35:52;99476.00;;;20.20
68743;BMP180;55725;42.758;26.702;2022-09-09T06:37:33;99483.00;;;20.20
68743;BMP180;55725;42.758;26.702;2022-09-09T06:39:13;99483.00;;;20.40
68743;BMP180;55725;42.758;26.702;2022-09-09T06:40:55;99482.00;;;20.70
68743;BMP180;55725;42.758;26.702;2022-09-09T06:42:36;99478.00;;;20.70
68743;BMP180;55725;42.758;26.702;2022-09-09T06:44:16;99482.00;;;20.50
68743;BMP180;55725;42.758;26.702;2022-09-09T06:46:00;99474.00;;;20.80
68743;BMP180;55725;42.758;26.702;2022-09-09T06:47:41;99473.00;;;20.60
68743;BMP180;55725;42.758;26.702;2022-09-09T06:49:21;99473.00;;;20.80
68743;BMP180;55725;42.758;26.702;2022-09-09T06:52:42;99474.00;;;21.00
68743;BMP180;55725;42.758;26.702;2022-09-09T06:54:26;99463.00;;;21.20
68743;BMP180;55725;42.758;26.702;2022-09-09T06:57:50;99454.00;;;21.30
68743;BMP180;55725;42.758;26.702;2022-09-09T06:59:31;99445.00;;;21.10
68743;BMP180;55725;42.758;26.702;2022-09-09T07:01:12;99449.00;;;22.10
68743;BMP180;55725;42.758;26.702;2022-09-09T07:02:52;99453.00;;;22.20
68743;BMP180;55725;42.758;26.702;2022-09-09T07:04:33;99449.00;;;21.90
68743;BMP180;55725;42.758;26.702;2022-09-09T07:06:32;99454.00;;;22.10
68743;BMP180;55725;42.758;26.702;2022-09-09T07:08:12;99450.00;;;22.00
68743;BMP180;55725;42.758;26.702;2022-09-09T07:09:52;99455.00;;;21.80
68743;BMP180;55725;42.758;26.702;2022-09-09T07:11:34;99450.00;;;22.10
68743;BMP180;55725;42.758;26.702;2022-09-09T07:13:17;99448.00;;;21.80
68743;BMP180;55725;42.758;26.702;2022-09-09T07:15:01;99448.00;;;22.20
68743;BMP180;55725;42.758;26.702;2022-09-09T07:16:41;99455.00;;;22.30
68743;BMP180;55725;42.758;26.702;2022-09-09T07:18:21;99450.00;;;22.40
68743;BMP180;55725;42.758;26.702;2022-09-09T07:20:02;99457.00;;;22.20
68743;BMP180;55725;42.758;26.702;2022-09-09T07:21:44;99460.00;;;22.20
68743;BMP180;55725;42.758;26.702;2022-09-09T07:23:24;99460.00;;;22.40
68743;BMP180;55725;42.758;26.702;2022-09-09T07:25:06;99457.00;;;22.40
68743;BMP180;55725;42.758;26.702;2022-09-09T07:26:46;99464.00;;;22.80
68743;BMP180;55725;42.758;26.702;2022-09-09T07:28:26;99460.00;;;22.40
68743;BMP180;55725;42.758;26.702;2022-09-09T07:30:09;99458.00;;;22.20
68743;BMP180;55725;42.758;26.702;2022-09-09T07:31:49;99452.00;;;22.60
68743;BMP180;55725;42.758;26.702;2022-09-09T07:33:30;99447.00;;;22.60
68743;BMP180;55725;42.758;26.702;2022-09-09T07:35:11;99449.00;;;22.80
68743;BMP180;55725;42.758;26.702;2022-09-09T07:36:51;99445.00;;;22.90
68743;BMP180;55725;42.758;26.702;2022-09-09T07:38:32;99447.00;;;23.00
68743;BMP180;55725;42.758;26.702;2022-09-09T07:40:12;99442.00;;;23.10
68743;BMP180;55725;42.758;26.702;2022-09-09T07:41:53;99442.00;;;22.90
68743;BMP180;55725;42.758;26.702;2022-09-09T07:43:34;99444.00;;;23.20
68743;BMP180;55725;42.758;26.702;2022-09-09T07:45:14;99440.00;;;23.40
68743;BMP180;55725;42.758;26.702;2022-09-09T07:46:55;99436.00;;;23.50
68743;BMP180;55725;42.758;26.702;2022-09-09T07:48:35;99435.00;;;23.80
68743;BMP180;55725;42.758;26.702;2022-09-09T07:50:16;99437.00;;;23.40
68743;BMP180;55725;42.758;26.702;2022-09-09T07:51:56;99436.00;;;23.50
68743;BMP180;55725;42.758;26.702;2022-09-09T07:53:37;99435.00;;;23.60
68743;BMP180;55725;42.758;26.702;2022-09-09T07:55:18;99434.00;;;23.50
68743;BMP180;55725;42.758;26.702;2022-09-09T07:56:59;99437.00;;;23.50
68743;BMP180;55725;42.758;26.702;2022-09-09T07:58:40;99434.00;;;23.90
68743;BMP180;55725;42.758;26.702;2022-09-09T08:00:20;99431.00;;;23.80
68743;BMP180;55725;42.758;26.702;2022-09-09T08:02:02;99438.00;;;24.10
68743;BMP180;55725;42.758;26.702;2022-09-09T08:03:42;99435.00;;;24.10
68743;BMP180;55725;42.758;26.702;2022-09-09T08:05:24;99432.00;;;24.40
68743;BMP180;55725;42.758;26.702;2022-09-09T08:07:05;99432.00;;;24.10
68743;BMP180;55725;42.758;26.702;2022-09-09T08:08:49;99435.00;;;24.60
68743;BMP180;55725;42.758;26.702;2022-09-09T08:10:29;99423.00;;;24.50
68743;BMP180;55725;42.758;26.702;2022-09-09T08:12:10;99433.00;;;24.20
68743;BMP180;55725;42.758;26.702;2022-09-09T08:13:51;99430.00;;;24.40
68743;BMP180;55725;42.758;26.702;2022-09-09T08:15:31;99432.00;;;24.00
68743;BMP180;55725;42.758;26.702;2022-09-09T08:17:12;99417.00;;;24.20
68743;BMP180;55725;42.758;26.702;2022-09-09T08:18:52;99415.00;;;24.40
68743;BMP180;55725;42.758;26.702;2022-09-09T08:20:35;99418.00;;;24.40
68743;BMP180;55725;42.758;26.702;2022-09-09T08:22:15;99417.00;;;24.40
68743;BMP180;55725;42.758;26.702;2022-09-09T08:23:56;99424.00;;;24.80
68743;BMP180;55725;42.758;26.702;2022-09-09T08:25:37;99424.00;;;24.80
68743;BMP180;55725;42.758;26.702;2022-09-09T08:27:17;99421.00;;;25.50
68743;BMP180;55725;42.758;26.702;2022-09-09T08:28:58;99415.00;;;24.90
68743;BMP180;55725;42.758;26.702;2022-09-09T08:30:39;99417.00;;;24.90
68743;BMP180;55725;42.758;26.702;2022-09-09T08:32:19;99422.00;;;25.10
68743;BMP180;55725;42.758;26.702;2022-09-09T08:34:00;99425.00;;;25.30
68743;BMP180;55725;42.758;26.702;2022-09-09T08:35:49;99415.00;;;24.90
68743;BMP180;55725;42.758;26.702;2022-09-09T08:37:29;99418.00;;;25.20
68743;BMP180;55725;42.758;26.702;2022-09-09T08:39:13;99403.00;;;25.80
68743;BMP180;55725;42.758;26.702;2022-09-09T08:40:54;99404.00;;;25.40
68743;BMP180;55725;42.758;26.702;2022-09-09T08:42:41;99404.00;;;25.70
68743;BMP180;55725;42.758;26.702;2022-09-09T08:46:26;99397.00;;;25.20
68743;BMP180;55725;42.758;26.702;2022-09-09T08:51:30;99399.00;;;25.70
68743;BMP180;55725;42.758;26.702;2022-09-09T08:54:51;99405.00;;;25.40
68743;BMP180;55725;42.758;26.702;2022-09-09T08:56:32;99394.00;;;25.60
68743;BMP180;55725;42.758;26.702;2022-09-09T08:59:54;99400.00;;;26.30
68743;BMP180;55725;42.758;26.702;2022-09-09T09:05:09;99392.00;;;25.90
68743;BMP180;55725;42.758;26.702;2022-09-09T09:09:01;99403.00;;;26.50
68743;BMP180;55725;42.758;26.702;2022-09-09T09:10:49;99380.00;;;26.70
68743;BMP180;55725;42.758;26.702;2022-09-09T09:12:35;99387.00;;;26.60
68743;BMP180;55725;42.758;26.702;2022-09-09T09:14:23;99373.00;;;27.00
68743;BMP180;55725;42.758;26.702;2022-09-09T09:16:17;99369.00;;;26.50
68743;BMP180;55725;42.758;26.702;2022-09-09T09:17:59;99379.00;;;26.80
68743;BMP180;55725;42.758;26.702;2022-09-09T09:19:40;99370.00;;;26.50
68743;BMP180;55725;42.758;26.702;2022-09-09T09:23:12;99362.00;;;27.00
68743;BMP180;55725;42.758;26.702;2022-09-09T09:24:56;99369.00;;;26.60
68743;BMP180;55725;42.758;26.702;2022-09-09T09:26:40;99357.00;;;27.30
68743;BMP180;55725;42.758;26.702;2022-09-09T09:28:27;99345.00;;;27.20
68743;BMP180;55725;42.758;26.702;2022-09-09T09:30:15;99360.00;;;27.70
68743;BMP180;55725;42.758;26.702;2022-09-09T09:31:58;99366.00;;;27.10
68743;BMP180;55725;42.758;26.702;2022-09-09T09:35:26;99351.00;;;26.90
68743;BMP180;55725;42.758;26.702;2022-09-09T09:37:12;99356.00;;;26.90
68743;BMP180;55725;42.758;26.702;2022-09-09T09:39:00;99346.00;;;27.30
68743;BMP180;55725;42.758;26.702;2022-09-09T09:40:48;99357.00;;;27.60
68743;BMP180;55725;42.758;26.702;2022-09-09T09:42:30;99360.00;;;27.10
68743;BMP180;55725;42.758;26.702;2022-09-09T09:46:00;99351.00;;;27.00
68743;BMP180;55725;42.758;26.702;2022-09-09T09:47:43;99346.00;;;28.10
68743;BMP180;55725;42.758;26.702;2022-09-09T09:49:24;99363.00;;;28.00
68743;BMP180;55725;42.758;26.702;2022-09-09T09:51:08;99348.00;;;28.00
68743;BMP180;55725;42.758;26.702;2022-09-09T09:52:53;99349.00;;;27.80
68743;BMP180;55725;42.758;26.702;2022-09-09T09:54:38;99346.00;;;28.00
68743;BMP180;55725;42.758;26.702;2022-09-09T09:56:26;99342.00;;;27.90
68743;BMP180;55725;42.758;26.702;2022-09-09T09:58:13;99345.00;;;27.80
68743;BMP180;55725;42.758;26.702;2022-09-09T10:00:03;99349.00;;;27.70
68743;BMP180;55725;42.758;26.702;2022-09-09T10:01:45;99351.00;;;28.00
68743;BMP180;55725;42.758;26.702;2022-09-09T10:05:13;99345.00;;;27.70
68743;BMP180;55725;42.758;26.702;2022-09-09T10:06:53;99351.00;;;27.70
68743;BMP180;55725;42.758;26.702;2022-09-09T10:08:43;99363.00;;;27.60
68743;BMP180;55725;42.758;26.702;2022-09-09T10:10:26;99345.00;;;27.80
68743;BMP180;55725;42.758;26.702;2022-09-09T10:16:09;99346.00;;;27.90
68743;BMP180;55725;42.758;26.702;2022-09-09T10:19:35;99352.00;;;27.90
68743;BMP180;55725;42.758;26.702;2022-09-09T10:23:04;99363.00;;;28.40
68743;BMP180;55725;42.758;26.702;2022-09-09T10:26:46;99344.00;;;28.20
68743;BMP180;55725;42.758;26.702;2022-09-09T10:28:33;99329.00;;;28.60
68743;BMP180;55725;42.758;26.702;2022-09-09T10:30:20;99333.00;;;29.60
68743;BMP180;55725;42.758;26.702;2022-09-09T10:36:12;99329.00;;;29.10
68743;BMP180;55725;42.758;26.702;2022-09-09T10:39:35;99323.00;;;28.40
68743;BMP180;55725;42.758;26.702;2022-09-09T10:45:10;99325.00;;;28.60
68743;BMP180;55725;42.758;26.702;2022-09-09T10:55:53;99299.00;;;29.10
68743;BMP180;55725;42.758;26.702;2022-09-09T10:59:26;99291.00;;;29.50
68743;BMP180;55725;42.758;26.702;2022-09-09T11:01:16;99298.00;;;29.60
68743;BMP180;55725;42.758;26.702;2022-09-09T11:03:00;99313.00;;;29.30
68743;BMP180;55725;42.758;26.702;2022-09-09T11:04:48;99290.00;;;29.30
68743;BMP180;55725;42.758;26.702;2022-09-09T11:06:36;99300.00;;;29.50
68743;BMP180;55725;42.758;26.702;2022-09-09T11:08:18;99289.00;;;29.20
68743;BMP180;55725;42.758;26.702;2022-09-09T11:10:04;99312.00;;;29.90
68743;BMP180;55725;42.758;26.702;2022-09-09T11:11:53;99293.00;;;29.50
68743;BMP180;55725;42.758;26.702;2022-09-09T11:13:53;99314.00;;;29.10
68743;BMP180;55725;42.758;26.702;2022-09-09T11:15:39;99324.00;;;29.40
68743;BMP180;55725;42.758;26.702;2022-09-09T11:17:23;99298.00;;;29.00
68743;BMP180;55725;42.758;26.702;2022-09-09T11:19:09;99291.00;;;29.10
68743;BMP180;55725;42.758;26.702;2022-09-09T11:20:53;99281.00;;;29.30
68743;BMP180;55725;42.758;26.702;2022-09-09T11:23:21;99281.00;;;29.70
68743;BMP180;55725;42.758;26.702;2022-09-09T11:24:41;99285.00;;;30.00